createdAt,value
2018-08-19T00:01:09.636Z,7.23
2018-08-19T00:03:38.315Z,7.13
2018-08-19T00:06:07.037Z,8.03
2018-08-19T00:08:35.804Z,7.37
2018-08-19T00:11:07.149Z,8.27
2018-08-19T00:13:37.182Z,7.50
2018-08-19T00:16:06.286Z,8.33
2018-08-19T00:18:36.308Z,7.70
2018-08-19T00:21:08.324Z,9.47
2018-08-19T00:23:42.210Z,8.37
2018-08-19T00:26:10.861Z,9.33
2018-08-19T00:28:39.419Z,9.80
2018-08-19T00:31:07.987Z,7.67
2018-08-19T00:33:36.792Z,7.90
2018-08-19T00:36:20.901Z,8.93
2018-08-19T00:38:49.577Z,8.57
2018-08-19T00:41:18.393Z,7.40
2018-08-19T00:43:47.296Z,8.67
2018-08-19T00:46:21.783Z,7.50
2018-08-19T00:48:50.503Z,7.70
2018-08-19T00:51:19.094Z,7.53
2018-08-19T00:53:47.728Z,9.00
2018-08-19T00:56:16.329Z,8.60
2018-08-19T00:58:45.038Z,7.90
2018-08-19T01:01:26.944Z,7.30
2018-08-19T01:03:56.278Z,9.70
2018-08-19T01:06:25.029Z,8.80
2018-08-19T01:08:53.685Z,8.60
2018-08-19T01:11:27.776Z,9.30
2018-08-19T01:13:56.405Z,9.17
2018-08-19T01:16:26.023Z,10.07
2018-08-19T01:19:01.854Z,8.70
2018-08-19T01:21:31.852Z,9.33
2018-08-19T01:24:01.640Z,8.90
2018-08-19T01:26:36.260Z,8.90
2018-08-19T01:29:06.046Z,10.47
2018-08-19T01:31:34.911Z,9.37
2018-08-19T01:34:08.289Z,9.57
2018-08-19T01:36:36.912Z,10.27
2018-08-19T01:39:09.224Z,9.87
2018-08-19T01:41:38.663Z,10.00
2018-08-19T01:44:15.526Z,10.20
2018-08-19T01:46:46.934Z,12.43
2018-08-19T01:49:15.648Z,11.60
2018-08-19T01:51:44.912Z,10.60
2018-08-19T01:54:17.348Z,10.87
2018-08-19T01:56:46.000Z,11.13
2018-08-19T01:59:14.692Z,11.70
2018-08-19T02:02:04.674Z,10.70
2018-08-19T02:04:35.148Z,9.87
2018-08-19T02:07:04.062Z,10.20
2018-08-19T02:09:32.600Z,11.23
2018-08-19T02:12:01.479Z,11.80
2018-08-19T02:21:17.761Z,11.47
2018-08-19T02:23:46.351Z,10.93
2018-08-19T02:26:19.182Z,10.67
2018-08-19T02:28:47.782Z,11.00
2018-08-19T02:31:16.469Z,11.10
2018-08-19T02:33:45.778Z,10.33
2018-08-19T02:36:15.241Z,10.10
2018-08-19T02:38:43.972Z,9.50
2018-08-19T02:41:13.291Z,9.87
2018-08-19T02:43:47.107Z,11.03
2018-08-19T02:46:15.903Z,11.83
2018-08-19T02:48:46.984Z,10.50
2018-08-19T02:51:16.932Z,11.93
2018-08-19T02:53:46.720Z,9.87
2018-08-19T02:56:16.037Z,11.40
2018-08-19T02:58:45.623Z,12.27
2018-08-19T03:01:15.421Z,12.13
2018-08-19T03:03:44.075Z,12.17
2018-08-19T03:06:12.745Z,10.83
2018-08-19T03:08:50.137Z,10.80
2018-08-19T03:11:20.593Z,11.10
2018-08-19T03:13:49.794Z,11.80
2018-08-19T03:16:18.494Z,13.20
2018-08-19T03:18:49.369Z,12.47
2018-08-19T03:21:18.536Z,11.57
2018-08-19T03:23:48.866Z,11.30
2018-08-19T03:26:17.552Z,10.67
2018-08-19T03:28:46.199Z,11.67
2018-08-19T03:31:14.864Z,10.80
2018-08-19T03:33:43.503Z,10.03
2018-08-19T03:36:12.119Z,11.83
2018-08-19T03:38:40.777Z,9.93
2018-08-19T03:41:09.392Z,10.00
2018-08-19T03:43:38.459Z,9.60
2018-08-19T03:46:22.725Z,10.30
2018-08-19T03:48:52.021Z,9.60
2018-08-19T03:51:21.253Z,9.60
2018-08-19T03:53:49.913Z,10.20
2018-08-19T03:56:23.847Z,10.23
2018-08-19T03:58:55.980Z,10.30
2018-08-19T04:01:35.859Z,9.57
2018-08-19T04:04:04.588Z,9.80
2018-08-19T04:06:33.556Z,10.40
2018-08-19T04:09:02.209Z,10.50
2018-08-19T04:11:30.799Z,10.73
2018-08-19T04:13:59.509Z,9.67
2018-08-19T04:16:28.210Z,10.03
2018-08-19T04:19:01.839Z,9.47
2018-08-19T04:21:30.489Z,10.73
2018-08-19T04:23:59.268Z,11.03
2018-08-19T04:26:27.949Z,9.43
2018-08-19T04:28:56.527Z,10.77
2018-08-19T04:31:25.239Z,9.13
2018-08-19T04:33:54.703Z,9.10
2018-08-19T04:36:24.792Z,10.57
2018-08-19T04:38:53.465Z,8.87
2018-08-19T04:41:22.041Z,8.67
2018-08-19T04:43:50.779Z,8.33
2018-08-19T04:46:19.491Z,9.30
2018-08-19T04:48:48.632Z,9.50
2018-08-19T04:51:17.204Z,9.53
2018-08-19T04:53:45.818Z,9.23
2018-08-19T04:56:14.469Z,8.80
2018-08-19T04:58:43.101Z,8.57
2018-08-19T05:01:13.124Z,9.20
2018-08-19T05:03:44.364Z,8.70
2018-08-19T05:06:13.202Z,9.40
2018-08-19T05:08:42.083Z,8.77
2018-08-19T05:11:10.707Z,9.23
2018-08-19T05:13:39.284Z,8.60
2018-08-19T05:16:07.991Z,8.90
2018-08-19T05:18:36.683Z,9.57
2018-08-19T05:21:10.540Z,10.77
2018-08-19T05:23:39.777Z,9.63
2018-08-19T05:26:08.668Z,8.87
2018-08-19T05:28:37.272Z,11.30
2018-08-19T05:31:05.988Z,9.97
2018-08-19T05:33:34.592Z,9.60
2018-08-19T05:36:03.443Z,8.90
2018-08-19T05:38:33.187Z,8.27
2018-08-19T05:41:02.672Z,8.43
2018-08-19T05:43:31.892Z,9.50
2018-08-19T05:46:01.628Z,10.70
2018-08-19T05:48:30.294Z,9.47
2018-08-19T05:50:59.263Z,8.60
2018-08-19T05:53:27.830Z,9.43
2018-08-19T05:55:56.464Z,9.13
2018-08-19T05:58:25.378Z,8.73
2018-08-19T06:01:01.617Z,8.33
2018-08-19T06:03:30.584Z,8.00
2018-08-19T06:05:59.765Z,9.30
2018-08-19T06:08:28.376Z,9.60
2018-08-19T06:10:57.057Z,8.80
2018-08-19T06:13:28.355Z,8.93
2018-08-19T06:15:57.084Z,8.37
2018-08-19T06:18:25.801Z,9.20
2018-08-19T06:20:54.425Z,8.10
2018-08-19T06:23:23.221Z,9.07
2018-08-19T06:25:52.573Z,8.40
2018-08-19T06:28:21.441Z,7.40
2018-08-19T06:30:50.221Z,8.70
2018-08-19T06:33:18.852Z,7.80
2018-08-19T06:35:47.659Z,8.97
2018-08-19T06:38:16.254Z,8.87
2018-08-19T06:40:44.832Z,8.63
2018-08-19T06:43:13.719Z,7.50
2018-08-19T06:45:42.262Z,8.27
2018-08-19T06:48:11.293Z,8.37
2018-08-19T06:50:39.931Z,6.93
2018-08-19T06:53:12.488Z,7.10
2018-08-19T06:55:41.166Z,7.30
2018-08-19T06:58:09.837Z,6.97
2018-08-19T07:00:38.960Z,8.17
2018-08-19T07:03:07.595Z,6.83
2018-08-19T07:05:36.176Z,8.10
2018-08-19T07:08:04.889Z,6.60
2018-08-19T07:10:38.075Z,7.13
2018-08-19T07:13:12.030Z,7.10
2018-08-19T07:15:42.787Z,6.20
2018-08-19T07:18:13.297Z,5.60
2018-08-19T07:20:42.698Z,6.33
2018-08-19T07:23:11.839Z,5.03
2018-08-19T07:25:44.929Z,4.80
2018-08-19T07:28:15.065Z,4.70
2018-08-19T07:30:44.015Z,4.73
2018-08-19T07:33:13.272Z,5.30
2018-08-19T07:35:41.984Z,4.87
2018-08-19T07:38:10.793Z,5.20
2018-08-19T07:40:39.578Z,4.37
2018-08-19T07:43:08.441Z,4.33
2018-08-19T07:45:36.979Z,4.87
2018-08-19T07:48:06.186Z,4.23
2018-08-19T07:50:34.726Z,4.70
2018-08-19T07:53:03.312Z,4.20
2018-08-19T07:55:31.896Z,3.90
2018-08-19T07:58:00.457Z,4.03
2018-08-19T08:00:34.540Z,4.20
2018-08-19T08:03:03.223Z,4.10
2018-08-19T08:05:37.796Z,4.73
2018-08-19T08:08:07.825Z,3.77
2018-08-19T08:10:36.594Z,4.17
2018-08-19T08:13:10.397Z,3.90
2018-08-19T08:15:56.488Z,4.20
2018-08-19T08:18:25.218Z,4.57
2018-08-19T08:21:25.650Z,5.57
2018-08-19T08:23:54.104Z,4.73
2018-08-19T08:26:22.745Z,4.53
2018-08-19T08:28:56.707Z,4.70
2018-08-19T08:31:25.685Z,6.00
2018-08-19T08:33:54.310Z,4.97
2018-08-19T08:36:23.036Z,4.90
2018-08-19T08:38:51.701Z,5.23
2018-08-19T08:41:20.857Z,4.50
2018-08-19T08:43:49.455Z,5.37
2018-08-19T08:46:18.192Z,5.60
2018-08-19T08:48:46.826Z,5.00
2018-08-19T08:51:15.369Z,5.77
2018-08-19T08:53:46.105Z,4.47
2018-08-19T08:56:15.103Z,4.40
2018-08-19T08:58:43.884Z,5.33
2018-08-19T09:01:13.089Z,4.67
2018-08-19T09:03:41.754Z,6.27
2018-08-19T09:06:18.274Z,4.33
2018-08-19T09:08:46.888Z,5.93
2018-08-19T09:11:17.820Z,5.63
2018-08-19T09:13:46.605Z,5.33
2018-08-19T09:16:15.187Z,5.70
2018-08-19T09:18:43.803Z,6.13
2018-08-19T09:21:12.461Z,6.70
2018-08-19T09:23:41.104Z,6.10
2018-08-19T09:26:09.785Z,6.30
2018-08-19T09:28:38.364Z,7.07
2018-08-19T09:31:06.967Z,6.53
2018-08-19T09:33:35.702Z,6.73
2018-08-19T09:36:04.516Z,6.40
2018-08-19T09:38:33.368Z,6.63
2018-08-19T09:41:02.068Z,7.00
2018-08-19T09:43:31.834Z,7.23
2018-08-19T09:46:00.530Z,6.97
2018-08-19T09:48:29.864Z,7.40
2018-08-19T09:51:02.665Z,7.43
2018-08-19T09:53:31.307Z,7.33
2018-08-19T09:56:05.326Z,7.63
2018-08-19T09:58:34.041Z,6.87
2018-08-19T10:02:08.792Z,8.30
2018-08-19T10:04:37.470Z,8.40
2018-08-19T10:07:12.320Z,7.00
2018-08-19T10:09:41.202Z,7.00
2018-08-19T10:12:10.581Z,7.87
2018-08-19T10:14:39.960Z,6.57
2018-08-19T10:17:08.828Z,9.30
2018-08-19T10:19:37.627Z,7.07
2018-08-19T10:22:06.201Z,6.53
2018-08-19T10:24:35.204Z,7.50
2018-08-19T10:27:08.737Z,7.33
2018-08-19T10:29:37.343Z,6.57
2018-08-19T10:32:06.269Z,7.37
2018-08-19T10:34:36.137Z,6.67
2018-08-19T10:37:05.415Z,6.77
2018-08-19T10:39:34.143Z,6.10
2018-08-19T10:42:16.758Z,6.57
2018-08-19T10:44:46.408Z,7.23
2018-08-19T10:47:14.964Z,8.17
2018-08-19T10:49:49.049Z,6.97
2018-08-19T10:52:23.287Z,7.40
2018-08-19T10:54:51.912Z,7.07
2018-08-19T10:57:21.493Z,7.67
2018-08-19T10:59:53.082Z,6.80
2018-08-19T11:02:21.937Z,8.10
2018-08-19T11:04:50.691Z,8.50
2018-08-19T11:07:19.789Z,6.93
2018-08-19T11:10:03.696Z,7.97
2018-08-19T11:12:32.260Z,6.70
2018-08-19T11:15:00.960Z,7.73
2018-08-19T11:17:29.574Z,7.37
2018-08-19T11:19:58.956Z,7.10
2018-08-19T11:22:27.542Z,6.33
2018-08-19T11:24:56.063Z,7.97
2018-08-19T11:27:25.776Z,7.63
2018-08-19T11:29:54.856Z,7.53
2018-08-19T11:32:35.628Z,7.80
2018-08-19T11:35:04.839Z,9.03
2018-08-19T11:37:33.392Z,7.20
2018-08-19T11:40:02.085Z,8.17
2018-08-19T11:42:30.873Z,7.43
2018-08-19T11:44:59.670Z,7.50
2018-08-19T11:47:28.373Z,6.97
2018-08-19T11:49:58.087Z,8.30
2018-08-19T11:52:26.658Z,7.67
2018-08-19T11:54:55.211Z,8.23
2018-08-19T11:57:25.155Z,9.00
2018-08-19T11:59:54.833Z,7.90
2018-08-19T12:02:24.626Z,7.30
2018-08-19T12:04:54.349Z,7.13
2018-08-19T12:07:22.952Z,6.90
2018-08-19T12:09:57.040Z,6.97
2018-08-19T12:12:42.254Z,7.80
2018-08-19T12:15:11.064Z,8.00
2018-08-19T12:17:39.664Z,7.43
2018-08-19T12:20:08.399Z,7.20
2018-08-19T12:22:39.999Z,7.90
2018-08-19T12:25:09.738Z,7.83
2018-08-19T12:27:38.607Z,7.53
2018-08-19T12:30:14.446Z,7.17
2018-08-19T12:32:43.442Z,7.00
2018-08-19T12:37:41.341Z,7.70
2018-08-19T12:40:10.429Z,7.43
2018-08-19T12:42:44.583Z,7.07
2018-08-19T12:45:13.583Z,7.47
2018-08-19T12:47:42.719Z,6.50
2018-08-19T12:50:14.656Z,6.33
2018-08-19T12:52:43.855Z,6.20
2018-08-19T12:55:15.241Z,6.27
2018-08-19T12:57:45.392Z,5.80
2018-08-19T13:00:18.469Z,6.23
2018-08-19T13:02:48.740Z,5.17
2018-08-19T13:05:18.559Z,5.80
2018-08-19T13:07:47.499Z,6.27
2018-08-19T13:10:16.527Z,5.60
2018-08-19T13:12:51.976Z,5.07
2018-08-19T13:15:21.071Z,5.33
2018-08-19T13:17:50.365Z,5.83
2018-08-19T13:20:19.056Z,5.47
2018-08-19T13:22:59.479Z,6.10
2018-08-19T13:25:28.483Z,5.37
2018-08-19T13:27:57.251Z,5.70
2018-08-19T13:30:26.046Z,5.20
2018-08-19T13:32:54.687Z,5.90
2018-08-19T13:35:23.335Z,5.80
2018-08-19T13:37:52.201Z,4.63
2018-08-19T13:40:21.535Z,6.50
2018-08-19T13:42:50.203Z,5.73
2018-08-19T13:45:20.376Z,6.37
2018-08-19T13:47:50.633Z,6.07
2018-08-19T13:50:19.930Z,6.10
2018-08-19T13:52:48.652Z,6.90
2018-08-19T13:55:19.896Z,6.60
2018-08-19T13:57:48.645Z,6.07
2018-08-19T14:00:18.886Z,6.03
2018-08-19T14:02:48.047Z,5.67
2018-08-19T14:05:16.820Z,5.63
2018-08-19T14:07:46.637Z,6.20
2018-08-19T14:10:16.593Z,5.60
2018-08-19T14:12:45.268Z,5.67
2018-08-19T14:15:14.038Z,5.20
2018-08-19T14:17:42.978Z,5.80
2018-08-19T14:20:12.303Z,6.00
2018-08-19T14:22:41.005Z,6.27
2018-08-19T14:25:10.992Z,6.30
2018-08-19T14:27:39.951Z,5.63
2018-08-19T14:30:10.731Z,5.87
2018-08-19T14:32:43.833Z,6.00
2018-08-19T14:35:12.475Z,6.13
2018-08-19T14:37:41.533Z,6.77
2018-08-19T14:40:15.079Z,6.13
2018-08-19T14:42:43.806Z,5.80
2018-08-19T14:45:12.708Z,7.17
2018-08-19T14:47:41.377Z,5.57
2018-08-19T14:50:12.660Z,7.03
2018-08-19T14:52:42.015Z,6.83
2018-08-19T14:55:10.977Z,5.63
2018-08-19T14:57:40.448Z,5.50
2018-08-19T15:00:11.179Z,6.10
2018-08-19T15:02:40.097Z,5.70
2018-08-19T15:05:12.364Z,6.10
2018-08-19T15:07:42.149Z,6.13
2018-08-19T15:10:12.021Z,6.10
2018-08-19T15:12:40.584Z,6.80
2018-08-19T15:15:09.306Z,6.40
2018-08-19T15:17:38.560Z,6.53
2018-08-19T15:20:07.486Z,5.97
2018-08-19T15:22:36.427Z,6.33
2018-08-19T15:25:05.240Z,6.43
2018-08-19T15:27:37.564Z,6.53
2018-08-19T15:30:07.423Z,5.83
2018-08-19T15:32:36.478Z,5.33
2018-08-19T15:35:05.609Z,6.23
2018-08-19T15:37:34.309Z,6.20
2018-08-19T15:40:03.111Z,7.13
2018-08-19T15:42:32.293Z,6.10
2018-08-19T15:45:00.936Z,6.07
2018-08-19T15:47:29.579Z,6.87
2018-08-19T15:50:09.610Z,7.37
2018-08-19T15:52:38.497Z,6.87
2018-08-19T15:55:07.329Z,6.70
2018-08-19T15:57:35.924Z,6.90
2018-08-19T16:00:04.668Z,6.40
2018-08-19T16:02:33.309Z,6.50
2018-08-19T16:05:04.836Z,7.73
2018-08-19T16:07:33.589Z,6.30
2018-08-19T16:10:02.425Z,5.70
2018-08-19T16:12:31.240Z,7.90
2018-08-19T16:15:00.079Z,7.50
2018-08-19T16:17:28.683Z,7.60
2018-08-19T16:19:57.459Z,6.83
2018-08-19T16:22:26.083Z,6.90
2018-08-19T16:24:54.649Z,6.17
2018-08-19T16:27:23.953Z,7.60
2018-08-19T16:29:52.681Z,6.10
2018-08-19T16:32:21.259Z,5.83
2018-08-19T16:34:50.081Z,6.03
2018-08-19T16:37:20.863Z,7.63
2018-08-19T16:39:49.743Z,7.67
2018-08-19T16:43:21.620Z,6.70
2018-08-19T16:45:50.781Z,7.90
2018-08-19T16:48:20.580Z,8.00
2018-08-19T16:50:49.452Z,7.53
2018-08-19T16:53:18.772Z,8.10
2018-08-19T16:55:47.486Z,7.30
2018-08-19T16:58:16.174Z,7.63
2018-08-19T17:00:44.913Z,7.33
2018-08-19T17:03:26.268Z,8.30
2018-08-19T17:05:55.637Z,8.30
2018-08-19T17:08:24.318Z,8.70
2018-08-19T17:10:53.106Z,7.63
2018-08-19T17:13:21.878Z,8.77
2018-08-19T17:15:50.587Z,8.37
2018-08-19T17:18:19.871Z,8.20
2018-08-19T17:20:49.498Z,7.80
2018-08-19T17:23:20.643Z,8.37
2018-08-19T17:25:49.773Z,8.97
2018-08-19T17:28:22.434Z,9.10
2018-08-19T17:30:53.813Z,9.23
2018-08-19T17:33:29.045Z,8.97
2018-08-19T17:35:58.121Z,8.60
2018-08-19T17:38:30.247Z,9.13
2018-08-19T17:40:59.472Z,9.10
2018-08-19T17:43:33.404Z,8.97
2018-08-19T17:46:05.854Z,9.40
2018-08-19T17:48:35.991Z,9.47
2018-08-19T17:51:14.605Z,9.57
2018-08-19T17:53:43.513Z,9.40
2018-08-19T17:56:12.253Z,8.90
2018-08-19T17:58:40.868Z,9.10
2018-08-19T18:01:09.732Z,9.07
2018-08-19T18:03:38.381Z,9.00
2018-08-19T18:06:07.423Z,8.23
2018-08-19T18:08:36.177Z,9.30
2018-08-19T18:11:05.695Z,9.03
2018-08-19T18:13:34.482Z,9.20
2018-08-19T18:16:03.826Z,8.70
2018-08-19T18:18:32.882Z,8.63
2018-08-19T18:21:04.520Z,9.10
2018-08-19T18:23:33.354Z,8.87
2018-08-19T18:26:01.992Z,9.40
2018-08-19T18:28:31.802Z,8.43
2018-08-19T18:31:09.407Z,8.30
2018-08-19T18:33:43.259Z,9.37
2018-08-19T18:36:11.879Z,8.30
2018-08-19T18:38:40.509Z,9.23
2018-08-19T18:41:09.940Z,9.80
2018-08-19T18:43:38.584Z,9.47
2018-08-19T18:46:07.483Z,7.90
2018-08-19T18:48:36.164Z,9.60
2018-08-19T18:51:04.848Z,8.93
2018-08-19T18:53:33.505Z,9.27
2018-08-19T18:56:02.187Z,9.70
2018-08-19T18:58:30.873Z,9.50
2018-08-19T19:00:59.736Z,10.70
2018-08-19T19:03:28.562Z,9.63
2018-08-19T19:05:57.622Z,9.03
2018-08-19T19:08:26.447Z,9.00
2018-08-19T19:11:00.578Z,10.20
2018-08-19T19:13:29.534Z,9.23
2018-08-19T19:15:58.623Z,9.90
2018-08-19T19:18:27.619Z,9.10
2018-08-19T19:21:02.664Z,8.97
2018-08-19T19:23:38.075Z,9.43
2018-08-19T19:26:07.524Z,9.93
2018-08-19T19:28:36.391Z,10.73
2018-08-19T19:31:10.513Z,10.40
2018-08-19T19:33:40.133Z,10.07
2018-08-19T19:36:15.952Z,9.30
2018-08-19T19:38:50.563Z,9.73
2018-08-19T19:41:23.942Z,9.33
2018-08-19T19:43:52.897Z,9.10
2018-08-19T19:46:21.817Z,9.50
2018-08-19T19:48:50.782Z,10.10
2018-08-19T19:51:19.653Z,9.73
2018-08-19T19:53:48.352Z,8.67
2018-08-19T19:56:19.090Z,8.90
2018-08-19T19:58:49.644Z,10.00
2018-08-19T20:01:18.769Z,9.17
2018-08-19T20:03:54.506Z,8.97
2018-08-19T20:06:23.932Z,8.33
2018-08-19T20:08:53.173Z,9.40
2018-08-19T20:11:30.104Z,9.70
2018-08-19T20:14:01.507Z,9.40
2018-08-19T20:16:30.135Z,9.20
2018-08-19T20:18:58.835Z,8.80
2018-08-19T20:21:29.241Z,8.60
2018-08-19T20:23:58.934Z,8.97
2018-08-19T20:26:27.904Z,9.60
2018-08-19T20:28:57.875Z,9.40
2018-08-19T20:31:26.756Z,8.80
2018-08-19T20:33:55.456Z,10.17
2018-08-19T20:36:24.120Z,8.73
2018-08-19T20:38:52.760Z,11.00
2018-08-19T20:41:21.498Z,9.93
2018-08-19T20:43:50.212Z,9.50
2018-08-19T20:46:18.824Z,9.87
2018-08-19T20:48:48.214Z,9.23
2018-08-19T20:51:16.768Z,9.47
2018-08-19T20:53:45.454Z,10.30
2018-08-19T20:56:14.034Z,9.60
2018-08-19T20:58:42.618Z,8.80
2018-08-19T21:01:16.952Z,9.53
2018-08-19T21:03:46.027Z,9.10
2018-08-19T21:06:14.592Z,11.40
2018-08-19T21:08:43.131Z,9.80
2018-08-19T21:11:11.910Z,9.70
2018-08-19T21:13:40.432Z,9.07
2018-08-19T21:16:09.123Z,10.20
2018-08-19T21:18:37.940Z,9.60
2018-08-19T21:21:07.073Z,9.43
2018-08-19T21:23:35.870Z,10.67
2018-08-19T21:26:04.601Z,10.73
2018-08-19T21:28:33.275Z,10.53
2018-08-19T21:31:01.916Z,11.93
2018-08-19T21:33:30.531Z,10.83
2018-08-19T21:35:59.079Z,11.23
2018-08-19T21:38:27.847Z,11.40
2018-08-19T21:40:57.564Z,11.70
2018-08-19T21:43:28.352Z,11.33
2018-08-19T21:45:57.069Z,10.67
2018-08-19T21:48:25.879Z,10.70
2018-08-19T21:50:54.488Z,10.07
2018-08-19T21:53:23.108Z,9.37
2018-08-19T21:55:52.849Z,10.60
2018-08-19T21:58:21.646Z,10.27
2018-08-19T22:00:59.392Z,11.17
2018-08-19T22:03:33.500Z,9.50
2018-08-19T22:06:09.302Z,10.50
2018-08-19T22:08:37.879Z,9.43
2018-08-19T22:11:06.564Z,11.07
2018-08-19T22:13:35.159Z,9.90
2018-08-19T22:16:03.829Z,10.30
2018-08-19T22:18:32.603Z,11.73
2018-08-19T22:21:16.514Z,10.77
2018-08-19T22:23:46.641Z,10.43
2018-08-19T22:26:16.430Z,10.80
2018-08-19T22:28:45.632Z,10.70
2018-08-19T22:31:23.124Z,9.80
2018-08-19T22:33:52.923Z,10.40
2018-08-19T22:36:21.791Z,10.80
2018-08-19T22:38:51.115Z,10.60
2018-08-19T22:41:22.160Z,11.00
2018-08-19T22:43:51.301Z,11.73
2018-08-19T22:46:20.102Z,10.23
2018-08-19T22:48:50.083Z,10.37
2018-08-19T22:51:18.869Z,11.13
2018-08-19T22:53:49.797Z,12.10
2018-08-19T22:56:19.648Z,11.00
2018-08-19T22:58:48.962Z,11.23
2018-08-19T23:01:17.964Z,12.20
2018-08-19T23:03:46.653Z,11.47
2018-08-19T23:06:15.460Z,10.70
2018-08-19T23:08:44.050Z,11.63
2018-08-19T23:11:12.922Z,11.50
2018-08-19T23:13:52.732Z,9.83
2018-08-19T23:16:22.449Z,11.47
2018-08-19T23:18:51.072Z,12.00
2018-08-19T23:21:19.854Z,10.50
2018-08-19T23:23:48.483Z,10.30
2018-08-19T23:26:17.248Z,10.70
2018-08-19T23:28:45.872Z,11.30
2018-08-19T23:31:14.556Z,11.87
2018-08-19T23:33:43.185Z,11.80
2018-08-19T23:36:11.964Z,10.90
2018-08-19T23:38:40.563Z,11.77
2018-08-19T23:41:09.731Z,11.50
2018-08-19T23:43:38.324Z,10.67
2018-08-19T23:46:07.596Z,10.40
2018-08-19T23:48:37.157Z,10.50
2018-08-19T23:51:06.982Z,10.10
2018-08-19T23:53:35.555Z,11.37
2018-08-19T23:56:04.227Z,11.20
2018-08-19T23:58:32.880Z,11.47
